Time;durP1;ratioP1;P1;durP2;ratioP2;P2;SDS_P1;SDS_P2;PMS_P1;PMS_P2;Temp;Humidity;BMP_temperature;BMP_pressure;BME280_temperature;BME280_humidity;BME280_pressure;Samples;Min_cycle;Max_cycle;Signal;HPM_P1;HPM_P2
2022/10/31 00:00:50;;;;;;;5.53;5.10;;;15.30;1.00;;;;;;5021692;28;20461;-85
2022/10/31 00:03:19;;;;;;;5.87;5.43;;;15.20;1.00;;;;;;5023881;28;20484;-85
2022/10/31 00:05:50;;;;;;;5.87;5.37;;;15.10;1.00;;;;;;5017600;28;20460;-85
2022/10/31 00:08:18;;;;;;;7.70;5.70;;;15.00;1.00;;;;;;5022809;28;20550;-85
2022/10/31 00:10:47;;;;;;;6.83;6.30;;;14.80;99.90;;;;;;5039599;28;20469;-85
2022/10/31 00:13:15;;;;;;;7.10;5.90;;;14.90;99.90;;;;;;5019201;28;20806;-84
2022/10/31 00:15:44;;;;;;;7.33;5.77;;;15.00;37.30;;;;;;5018000;28;20496;-85
2022/10/31 00:18:12;;;;;;;6.23;5.57;;;14.80;74.30;;;;;;5033326;28;20483;-87
2022/10/31 00:20:40;;;;;;;8.00;5.80;;;15.00;1.00;;;;;;5021272;28;20490;-86
2022/10/31 00:23:11;;;;;;;5.20;4.90;;;14.70;60.00;;;;;;5015514;28;20481;-85
2022/10/31 00:25:40;;;;;;;8.13;5.73;;;15.00;17.90;;;;;;5013843;28;20454;-85
2022/10/31 00:28:11;;;;;;;6.40;5.03;;;14.80;25.30;;;;;;5010080;28;20481;-85
2022/10/31 00:30:40;;;;;;;5.47;5.07;;;14.80;1.00;;;;;;5016776;28;21055;-86
2022/10/31 00:33:08;;;;;;;7.00;6.00;;;15.10;1.00;;;;;;5014518;28;20968;-86
2022/10/31 00:35:36;;;;;;;5.53;4.90;;;14.90;1.00;;;;;;5016845;28;20926;-85
2022/10/31 00:38:04;;;;;;;6.37;5.53;;;14.50;7.50;;;;;;5025881;28;20479;-87
2022/10/31 00:40:34;;;;;;;5.63;4.97;;;14.60;88.80;;;;;;5019674;28;20451;-85
2022/10/31 00:43:02;;;;;;;5.50;5.00;;;14.80;1.00;;;;;;5017227;28;20518;-85
2022/10/31 00:45:31;;;;;;;4.90;4.50;;;14.80;1.00;;;;;;5021934;28;20493;-85
2022/10/31 00:47:59;;;;;;;5.60;5.20;;;14.60;1.00;;;;;;5023654;28;20500;-87
2022/10/31 00:50:28;;;;;;;6.17;5.40;;;14.60;1.00;;;;;;5026244;28;20501;-87
2022/10/31 00:52:56;;;;;;;6.13;5.63;;;14.70;1.00;;;;;;5022929;28;20485;-85
2022/10/31 00:55:24;;;;;;;6.50;5.80;;;14.60;1.00;;;;;;5017517;28;20499;-86
2022/10/31 00:57:54;;;;;;;6.23;5.77;;;14.50;1.00;;;;;;5021312;28;20544;-86
2022/10/31 01:00:22;;;;;;;6.20;5.70;;;14.60;38.30;;;;;;5016134;28;20454;-85
2022/10/31 01:02:51;;;;;;;6.50;5.90;;;14.30;99.90;;;;;;5017958;28;20474;-86
2022/10/31 01:05:19;;;;;;;6.10;5.50;;;14.20;99.90;;;;;;5016454;28;20470;-86
2022/10/31 01:07:48;;;;;;;6.60;6.00;;;14.50;99.90;;;;;;5018676;28;21061;-86
2022/10/31 01:10:17;;;;;;;8.10;6.40;;;14.50;52.50;;;;;;5019965;28;20513;-85
2022/10/31 01:12:46;;;;;;;6.63;5.93;;;14.20;99.90;;;;;;5019138;28;20556;-86
2022/10/31 01:15:19;;;;;;;7.37;6.63;;;14.30;99.90;;;;;;5018135;28;20461;-86
2022/10/31 01:17:47;;;;;;;7.10;6.37;;;14.10;99.90;;;;;;5017263;28;20508;-85
2022/10/31 01:20:16;;;;;;;7.00;6.40;;;14.30;99.90;;;;;;5018594;28;20461;-85
2022/10/31 01:22:44;;;;;;;6.47;5.87;;;14.60;39.90;;;;;;5016050;28;21016;-85
2022/10/31 01:25:13;;;;;;;7.23;6.03;;;14.40;1.00;;;;;;5013549;28;20485;-85
2022/10/31 01:27:41;;;;;;;7.33;6.73;;;14.30;99.90;;;;;;5012402;28;20519;-84
2022/10/31 01:30:10;;;;;;;6.40;5.73;;;14.50;46.80;;;;;;5011337;28;20557;-85
2022/10/31 01:32:39;;;;;;;6.17;5.67;;;14.30;1.00;;;;;;5012517;28;20465;-85
2022/10/31 01:35:08;;;;;;;6.90;6.27;;;14.30;90.50;;;;;;5015507;28;21045;-85
2022/10/31 01:37:36;;;;;;;6.33;5.83;;;14.10;96.40;;;;;;5014216;28;20511;-86
2022/10/31 01:40:05;;;;;;;6.23;5.70;;;13.90;99.90;;;;;;5013706;28;20459;-85
2022/10/31 01:42:33;;;;;;;6.33;5.73;;;14.30;99.90;;;;;;5012944;28;20519;-85
2022/10/31 01:45:02;;;;;;;6.50;6.00;;;14.40;14.00;;;;;;5014511;28;20499;-85
2022/10/31 01:47:45;;;;;;;5.80;5.40;;;14.30;26.70;;;;;;5016890;28;20475;-86
2022/10/31 01:50:29;;;;;;;6.77;6.13;;;14.30;17.60;;;;;;5022555;28;20880;-87
2022/10/31 01:52:58;;;;;;;6.10;5.70;;;14.10;1.00;;;;;;5017739;28;20468;-85
2022/10/31 01:55:29;;;;;;;7.07;6.00;;;13.80;91.30;;;;;;5017603;28;20464;-85
2022/10/31 01:58:01;;;;;;;7.50;6.13;;;13.50;99.90;;;;;;5021219;28;20471;-86
2022/10/31 02:00:30;;;;;;;6.30;5.90;;;13.70;99.90;;;;;;5035056;28;20495;-86
2022/10/31 02:03:00;;;;;;;7.57;6.80;;;13.80;99.90;;;;;;5028277;28;20519;-86
2022/10/31 02:05:30;;;;;;;8.30;5.80;;;13.90;99.90;;;;;;5020370;28;20869;-85
2022/10/31 02:08:02;;;;;;;7.20;6.50;;;14.00;99.90;;;;;;5016486;28;20599;-86
2022/10/31 02:10:33;;;;;;;7.27;5.80;;;14.20;99.90;;;;;;5023345;28;20468;-87
2022/10/31 02:13:04;;;;;;;5.23;4.83;;;14.10;99.90;;;;;;5018704;28;20462;-87
2022/10/31 02:15:33;;;;;;;6.70;5.87;;;14.20;94.10;;;;;;5012764;28;20455;-85
2022/10/31 02:18:04;;;;;;;7.13;6.50;;;13.90;99.90;;;;;;5016969;28;20474;-87
2022/10/31 02:20:37;;;;;;;6.67;6.13;;;14.20;99.90;;;;;;5019909;28;20497;-85
2022/10/31 02:23:47;;;;;;;7.13;6.10;;;14.10;62.40;;;;;;5023203;28;20494;-85
2022/10/31 02:26:41;;;;;;;6.43;5.70;;;14.20;34.50;;;;;;4996750;28;20472;-85
2022/10/31 02:29:34;;;;;;;6.73;6.07;;;13.90;72.00;;;;;;5022021;28;20532;-86
2022/10/31 02:32:10;;;;;;;5.87;5.27;;;13.80;93.30;;;;;;5024303;28;20500;-85
2022/10/31 02:34:47;;;;;;;6.13;5.53;;;14.00;99.90;;;;;;5027025;28;20458;-87
2022/10/31 02:37:21;;;;;;;6.70;6.10;;;14.00;56.40;;;;;;5026724;28;20487;-87
2022/10/31 02:39:55;;;;;;;8.93;6.77;;;14.00;56.20;;;;;;5032162;28;20464;-86
2022/10/31 02:42:30;;;;;;;10.70;6.40;;;14.00;56.30;;;;;;5032789;28;20457;-87
2022/10/31 02:45:07;;;;;;;8.07;6.70;;;13.90;99.90;;;;;;5028667;28;20464;-85
2022/10/31 02:47:38;;;;;;;7.27;6.57;;;14.00;57.50;;;;;;5022678;28;20471;-85
2022/10/31 02:50:12;;;;;;;10.90;8.40;;;13.90;19.40;;;;;;5020576;28;20510;-85
2022/10/31 02:52:40;;;;;;;9.77;7.77;;;14.10;8.40;;;;;;5016594;28;20461;-85
2022/10/31 02:55:13;;;;;;;8.90;8.10;;;14.10;1.00;;;;;;5021405;28;20898;-85
2022/10/31 02:57:43;;;;;;;9.27;6.90;;;13.80;1.00;;;;;;5023065;28;21054;-85
2022/10/31 03:00:12;;;;;;;6.17;5.67;;;13.40;99.90;;;;;;5016263;28;20537;-86
2022/10/31 03:03:04;;;;;;;7.23;6.30;;;13.50;99.90;;;;;;5019768;28;20512;-85
2022/10/31 03:05:41;;;;;;;6.93;6.23;;;13.40;99.90;;;;;;5023374;28;20460;-86
2022/10/31 03:08:16;;;;;;;8.30;6.60;;;13.50;99.90;;;;;;5018542;28;20487;-85
2022/10/31 03:10:49;;;;;;;10.40;6.30;;;13.70;99.90;;;;;;5024384;28;21188;-85
2022/10/31 03:13:29;;;;;;;8.37;6.13;;;13.60;99.90;;;;;;5020157;28;20832;-85
2022/10/31 03:16:06;;;;;;;6.17;5.60;;;13.50;99.90;;;;;;5024710;28;20975;-85
2022/10/31 03:18:41;;;;;;;6.60;6.03;;;13.70;99.90;;;;;;5022259;28;20468;-85
2022/10/31 03:21:12;;;;;;;6.60;5.80;;;13.50;99.90;;;;;;5023010;28;20956;-85
2022/10/31 03:23:43;;;;;;;8.63;6.30;;;13.60;99.90;;;;;;5028152;28;21043;-85
2022/10/31 03:26:13;;;;;;;6.40;5.80;;;13.70;99.90;;;;;;5027104;28;20481;-85
2022/10/31 03:28:50;;;;;;;5.27;4.93;;;13.50;99.90;;;;;;5019576;28;20761;-84
2022/10/31 03:31:24;;;;;;;6.40;5.70;;;13.60;92.90;;;;;;5019494;28;20976;-87
2022/10/31 03:33:56;;;;;;;6.10;5.50;;;13.40;99.90;;;;;;5021404;28;20503;-85
2022/10/31 03:36:24;;;;;;;7.93;5.93;;;13.30;99.90;;;;;;5017172;28;20526;-85
2022/10/31 03:38:53;;;;;;;6.37;5.73;;;13.10;1.00;;;;;;5024811;28;20488;-85
2022/10/31 03:41:26;;;;;;;8.80;6.50;;;13.20;99.90;;;;;;5016625;28;20523;-87
2022/10/31 03:44:00;;;;;;;6.43;5.70;;;13.10;99.90;;;;;;5020845;28;20488;-85
2022/10/31 03:46:29;;;;;;;5.67;5.27;;;13.30;99.90;;;;;;5018502;28;20463;-87
2022/10/31 03:48:59;;;;;;;5.93;5.33;;;13.20;99.90;;;;;;5017040;28;20509;-87
2022/10/31 03:51:34;;;;;;;6.50;5.90;;;13.30;1.00;;;;;;5029453;28;20445;-88
2022/10/31 03:54:08;;;;;;;5.87;5.00;;;13.20;99.90;;;;;;5028553;28;20483;-88
2022/10/31 03:56:40;;;;;;;6.73;5.30;;;13.30;99.90;;;;;;5030687;28;20472;-87
2022/10/31 03:59:14;;;;;;;5.80;4.70;;;13.30;99.90;;;;;;5025568;28;20480;-83
2022/10/31 04:01:47;;;;;;;6.30;4.87;;;13.60;99.90;;;;;;5018540;28;20535;-85
2022/10/31 04:04:18;;;;;;;5.87;5.37;;;13.30;99.90;;;;;;5015955;28;20556;-85
2022/10/31 04:06:48;;;;;;;7.63;5.00;;;13.50;99.90;;;;;;5020040;28;20461;-84
2022/10/31 04:09:17;;;;;;;5.50;5.00;;;13.30;99.90;;;;;;5019259;28;20453;-86
2022/10/31 04:11:49;;;;;;;6.27;5.70;;;13.30;99.90;;;;;;5020190;28;20984;-88
2022/10/31 04:14:18;;;;;;;5.43;5.03;;;13.20;99.90;;;;;;5022992;28;20950;-85
2022/10/31 04:16:46;;;;;;;6.83;5.67;;;13.20;99.90;;;;;;5014758;28;20470;-86
2022/10/31 04:19:17;;;;;;;8.77;5.13;;;13.30;99.90;;;;;;5022436;28;20472;-85
2022/10/31 04:21:45;;;;;;;5.47;5.07;;;13.50;99.90;;;;;;5023057;28;20483;-85
2022/10/31 04:24:13;;;;;;;5.60;5.13;;;13.50;99.90;;;;;;5020037;28;20503;-84
2022/10/31 04:26:41;;;;;;;7.17;5.13;;;13.40;99.90;;;;;;5020948;28;20459;-85
2022/10/31 04:29:09;;;;;;;6.47;4.93;;;13.20;99.90;;;;;;5018001;28;20492;-87
2022/10/31 04:31:38;;;;;;;5.07;4.63;;;13.10;99.90;;;;;;5022501;28;20457;-86
2022/10/31 04:34:07;;;;;;;7.30;5.43;;;13.20;99.90;;;;;;5015219;28;20463;-87
2022/10/31 04:36:36;;;;;;;6.10;5.50;;;13.00;99.90;;;;;;5015491;28;20478;-86
2022/10/31 04:39:05;;;;;;;5.67;5.20;;;12.90;1.00;;;;;;5018887;28;20557;-86
2022/10/31 04:41:33;;;;;;;6.57;5.10;;;13.00;99.90;;;;;;5016320;28;20458;-85
2022/10/31 04:44:01;;;;;;;6.27;5.47;;;13.10;99.90;;;;;;5016680;28;20532;-86
2022/10/31 04:46:29;;;;;;;5.93;5.33;;;12.90;99.90;;;;;;5015516;28;20447;-87
2022/10/31 04:48:58;;;;;;;7.97;5.60;;;12.70;99.90;;;;;;5014589;28;20948;-86
2022/10/31 04:51:26;;;;;;;7.77;4.90;;;12.90;1.00;;;;;;5011677;28;20972;-85
2022/10/31 04:53:55;;;;;;;6.13;5.17;;;12.90;99.90;;;;;;5019493;28;20545;-86
2022/10/31 04:56:23;;;;;;;5.03;4.53;;;13.10;99.90;;;;;;5016383;28;21022;-85
2022/10/31 04:58:52;;;;;;;5.37;4.87;;;13.10;99.90;;;;;;5018095;28;20574;-85
2022/10/31 05:01:20;;;;;;;6.70;5.60;;;13.00;99.90;;;;;;5014211;28;20468;-85
2022/10/31 05:03:48;;;;;;;6.23;5.73;;;13.20;99.90;;;;;;5015234;28;20467;-85
2022/10/31 05:06:17;;;;;;;5.77;5.20;;;13.00;99.90;;;;;;5017141;28;20515;-85
2022/10/31 05:08:45;;;;;;;7.43;6.20;;;13.10;99.90;;;;;;5019994;28;20475;-86
2022/10/31 05:11:15;;;;;;;6.57;6.07;;;13.10;99.90;;;;;;5016012;28;20455;-85
2022/10/31 05:13:43;;;;;;;5.60;5.20;;;12.90;99.90;;;;;;5024470;28;20486;-87
2022/10/31 05:16:11;;;;;;;6.33;5.70;;;12.70;99.90;;;;;;5022325;28;20455;-85
2022/10/31 05:18:39;;;;;;;6.20;5.60;;;12.60;1.00;;;;;;5018543;28;20518;-85
2022/10/31 05:21:07;;;;;;;7.70;5.60;;;12.60;1.00;;;;;;5018132;28;20463;-86
2022/10/31 05:23:36;;;;;;;5.93;5.30;;;12.80;99.90;;;;;;5012877;28;20454;-85
2022/10/31 05:26:04;;;;;;;7.23;6.13;;;12.90;99.90;;;;;;5020033;28;20509;-87
2022/10/31 05:28:33;;;;;;;5.47;5.07;;;12.60;99.90;;;;;;5019037;28;20491;-84
2022/10/31 05:31:03;;;;;;;5.43;5.03;;;12.80;99.90;;;;;;5016981;28;20453;-83
2022/10/31 05:33:31;;;;;;;6.17;5.67;;;12.90;99.90;;;;;;5022580;28;20463;-86
2022/10/31 05:35:59;;;;;;;8.53;6.13;;;13.00;99.90;;;;;;5020134;28;20548;-85
2022/10/31 05:38:27;;;;;;;6.10;5.67;;;13.00;98.60;;;;;;5016192;28;20538;-84
2022/10/31 05:40:57;;;;;;;6.23;4.80;;;12.90;99.90;;;;;;5016994;28;20898;-84
2022/10/31 05:43:25;;;;;;;5.80;5.30;;;12.70;99.90;;;;;;5012727;28;20454;-85
2022/10/31 05:45:55;;;;;;;6.10;5.60;;;12.70;99.90;;;;;;5017836;28;20478;-85
2022/10/31 05:48:24;;;;;;;6.83;6.37;;;12.70;99.90;;;;;;5011426;28;20465;-85
2022/10/31 05:50:52;;;;;;;8.63;5.53;;;12.60;99.90;;;;;;5017335;28;20456;-84
2022/10/31 05:53:20;;;;;;;6.60;6.00;;;12.50;99.90;;;;;;5017054;28;20466;-84
2022/10/31 05:55:48;;;;;;;6.60;5.73;;;12.40;99.90;;;;;;5016724;28;21006;-84
2022/10/31 05:58:16;;;;;;;6.67;5.90;;;12.30;1.00;;;;;;5017883;28;20486;-84
2022/10/31 06:00:44;;;;;;;6.20;5.60;;;12.30;1.00;;;;;;5017106;28;20471;-82
2022/10/31 06:03:14;;;;;;;7.07;6.00;;;12.50;99.90;;;;;;5012871;28;20458;-84
2022/10/31 06:05:42;;;;;;;7.10;6.03;;;12.50;99.90;;;;;;5014835;28;20899;-84
2022/10/31 06:08:10;;;;;;;5.40;5.00;;;12.50;99.90;;;;;;5015401;28;20558;-85
2022/10/31 06:10:38;;;;;;;6.37;5.97;;;12.60;99.90;;;;;;5018002;28;20520;-84
2022/10/31 06:13:07;;;;;;;5.97;5.47;;;12.40;99.90;;;;;;5012885;28;20517;-83
2022/10/31 06:15:35;;;;;;;5.67;5.27;;;12.60;99.90;;;;;;5016908;28;20535;-84
2022/10/31 06:18:05;;;;;;;5.70;5.30;;;12.20;99.90;;;;;;5018781;28;20518;-84
2022/10/31 06:20:35;;;;;;;6.97;6.27;;;12.40;99.90;;;;;;5021573;28;20458;-84
2022/10/31 06:23:04;;;;;;;6.60;5.90;;;12.60;99.90;;;;;;5021804;28;20463;-84
2022/10/31 06:25:33;;;;;;;6.10;5.50;;;12.70;99.90;;;;;;5014874;28;20505;-84
2022/10/31 06:28:02;;;;;;;5.83;5.33;;;12.60;99.90;;;;;;5011110;28;21030;-79
2022/10/31 06:30:30;;;;;;;6.57;5.80;;;12.50;99.90;;;;;;5007939;28;20457;-78
2022/10/31 06:33:03;;;;;;;6.27;5.70;;;12.60;99.90;;;;;;5013600;28;20449;-77
2022/10/31 06:35:32;;;;;;;6.43;5.67;;;12.50;99.90;;;;;;5010268;28;20447;-79
2022/10/31 06:38:01;;;;;;;7.20;6.50;;;12.50;99.90;;;;;;5011547;28;20575;-82
2022/10/31 06:40:30;;;;;;;6.37;5.87;;;12.70;99.90;;;;;;5011308;28;20453;-81
2022/10/31 06:42:59;;;;;;;6.80;6.20;;;12.60;99.90;;;;;;5014781;28;20458;-84
2022/10/31 06:45:27;;;;;;;10.03;6.17;;;12.80;99.90;;;;;;5013116;28;20553;-82
2022/10/31 06:47:57;;;;;;;6.10;5.50;;;12.80;99.90;;;;;;5024689;28;20503;-83
2022/10/31 06:50:45;;;;;;;6.00;5.40;;;13.00;99.90;;;;;;5021347;28;20863;-82
2022/10/31 06:53:15;;;;;;;5.87;5.40;;;13.20;99.90;;;;;;5019370;28;20455;-82
2022/10/31 06:55:43;;;;;;;6.73;5.77;;;13.10;99.90;;;;;;5025020;28;20482;-82
2022/10/31 06:58:12;;;;;;;8.17;7.60;;;12.90;99.90;;;;;;5014818;28;20533;-82
2022/10/31 07:00:40;;;;;;;5.90;5.50;;;12.80;99.90;;;;;;5012393;28;20520;-83
2022/10/31 07:03:11;;;;;;;5.97;5.43;;;13.10;99.90;;;;;;5014993;28;20469;-82
2022/10/31 07:05:40;;;;;;;7.50;6.43;;;13.00;99.90;;;;;;5017591;28;20471;-83
2022/10/31 07:08:11;;;;;;;7.70;5.70;;;13.30;99.90;;;;;;5015428;28;20499;-82
2022/10/31 07:10:42;;;;;;;6.73;6.23;;;13.30;99.90;;;;;;5017449;28;20460;-82
2022/10/31 07:13:14;;;;;;;7.97;7.40;;;13.50;99.90;;;;;;5011514;28;20769;-82
2022/10/31 07:15:44;;;;;;;6.50;6.10;;;13.40;99.90;;;;;;5016025;28;20455;-83
2022/10/31 07:18:13;;;;;;;7.10;6.53;;;13.60;99.90;;;;;;5015414;28;20479;-82
2022/10/31 07:20:41;;;;;;;6.87;6.37;;;13.60;99.90;;;;;;5016863;28;20521;-85
2022/10/31 07:23:10;;;;;;;7.93;6.87;;;13.70;99.90;;;;;;5017731;28;20478;-83
2022/10/31 07:25:41;;;;;;;8.33;6.67;;;13.80;99.90;;;;;;5017928;28;20476;-82
2022/10/31 07:28:09;;;;;;;10.20;6.80;;;13.80;99.90;;;;;;5015821;28;20484;-83
2022/10/31 07:30:38;;;;;;;7.43;6.57;;;14.00;99.90;;;;;;5019317;28;20446;-82
2022/10/31 07:33:06;;;;;;;7.00;6.40;;;14.00;99.90;;;;;;5017248;28;20463;-84
2022/10/31 07:35:35;;;;;;;7.97;7.17;;;14.10;99.90;;;;;;5017043;28;20452;-83
2022/10/31 07:38:10;;;;;;;7.43;6.83;;;14.20;99.90;;;;;;5016677;28;20483;-83
2022/10/31 07:40:40;;;;;;;8.23;7.63;;;14.10;99.90;;;;;;5015284;28;20457;-83
2022/10/31 07:43:09;;;;;;;11.43;9.93;;;14.10;99.90;;;;;;5014949;28;20507;-82
2022/10/31 07:45:42;;;;;;;8.60;8.00;;;14.20;99.90;;;;;;5017365;28;20452;-83
2022/10/31 07:48:10;;;;;;;8.50;7.70;;;14.30;99.90;;;;;;5016243;28;20482;-82
2022/10/31 07:50:39;;;;;;;8.40;7.73;;;14.50;90.20;;;;;;5013022;28;20454;-83
2022/10/31 07:53:08;;;;;;;10.30;9.27;;;14.70;91.40;;;;;;5019819;28;20975;-83
2022/10/31 07:55:37;;;;;;;7.30;6.77;;;14.80;91.10;;;;;;5017388;28;20473;-84
2022/10/31 07:58:08;;;;;;;7.97;7.37;;;15.10;98.60;;;;;;5025931;28;20481;-84
2022/10/31 08:00:38;;;;;;;8.50;7.90;;;15.20;52.10;;;;;;5017393;28;20473;-83
2022/10/31 08:03:08;;;;;;;8.23;7.33;;;15.40;1.00;;;;;;5016222;28;20462;-84
2022/10/31 08:05:37;;;;;;;8.47;7.67;;;15.60;1.00;;;;;;5014185;28;20451;-84
2022/10/31 08:08:06;;;;;;;7.70;7.20;;;15.80;1.00;;;;;;5014426;28;20530;-84
2022/10/31 08:10:35;;;;;;;8.17;7.40;;;15.80;1.00;;;;;;5016110;28;21023;-82
2022/10/31 08:13:05;;;;;;;8.90;8.00;;;16.10;1.00;;;;;;5014704;28;20519;-84
2022/10/31 08:15:38;;;;;;;8.87;8.00;;;16.20;1.00;;;;;;5019038;28;20457;-83
2022/10/31 08:18:06;;;;;;;8.87;8.10;;;16.40;1.00;;;;;;5022922;28;20470;-83
2022/10/31 08:20:34;;;;;;;9.07;8.30;;;16.50;1.00;;;;;;5016187;28;21040;-84
2022/10/31 08:23:04;;;;;;;9.03;8.43;;;16.40;1.00;;;;;;5015865;28;20462;-83
2022/10/31 08:25:34;;;;;;;8.47;7.60;;;16.60;1.00;;;;;;5018472;28;20518;-83
2022/10/31 08:28:07;;;;;;;8.00;7.23;;;16.70;1.00;;;;;;5017295;28;21185;-83
2022/10/31 08:30:38;;;;;;;7.83;7.30;;;16.70;1.00;;;;;;5015139;28;20470;-83
2022/10/31 08:33:09;;;;;;;7.43;6.73;;;16.70;1.00;;;;;;5013478;28;20467;-84
2022/10/31 08:35:37;;;;;;;7.60;6.90;;;16.90;1.00;;;;;;5014801;28;20457;-84
2022/10/31 08:38:07;;;;;;;8.57;7.77;;;16.90;1.00;;;;;;5017221;28;20570;-83
2022/10/31 08:40:36;;;;;;;8.80;8.00;;;16.90;1.00;;;;;;5018773;28;20453;-83
2022/10/31 08:43:06;;;;;;;8.17;7.50;;;17.00;1.00;;;;;;5020581;28;20474;-84
2022/10/31 08:45:36;;;;;;;7.83;7.17;;;17.10;1.00;;;;;;5017802;28;20960;-82
2022/10/31 08:48:07;;;;;;;8.03;7.33;;;17.20;1.00;;;;;;5018887;28;20483;-81
2022/10/31 08:50:36;;;;;;;8.40;7.70;;;17.30;1.00;;;;;;5018304;28;20541;-80
2022/10/31 08:53:06;;;;;;;7.63;7.17;;;17.40;1.00;;;;;;5011974;28;20514;-82
2022/10/31 08:55:35;;;;;;;9.03;8.30;;;17.40;1.00;;;;;;5014899;28;20551;-82
2022/10/31 08:58:05;;;;;;;8.93;8.33;;;17.50;1.00;;;;;;5014679;28;20537;-82
2022/10/31 09:00:34;;;;;;;8.40;7.60;;;17.40;1.00;;;;;;5015497;28;20457;-81
2022/10/31 09:03:06;;;;;;;9.60;8.60;;;17.50;1.00;;;;;;5016193;28;20448;-81
2022/10/31 09:05:34;;;;;;;8.67;7.83;;;17.40;1.00;;;;;;5011391;28;21150;-81
2022/10/31 09:08:04;;;;;;;7.17;6.67;;;17.60;1.00;;;;;;5014621;28;20546;-80
2022/10/31 09:10:34;;;;;;;8.33;7.53;;;17.80;99.90;;;;;;5016763;28;20559;-80
2022/10/31 09:13:06;;;;;;;8.73;7.83;;;18.00;99.90;;;;;;5015250;28;21105;-82
2022/10/31 09:15:36;;;;;;;7.93;7.20;;;18.10;99.90;;;;;;5013467;28;20457;-81
2022/10/31 09:18:05;;;;;;;7.63;7.03;;;18.30;99.90;;;;;;5014744;28;20477;-81
2022/10/31 09:20:35;;;;;;;8.23;7.43;;;18.40;99.90;;;;;;5015630;28;20457;-81
2022/10/31 09:23:04;;;;;;;8.20;7.50;;;18.50;99.90;;;;;;5016321;28;20991;-81
2022/10/31 09:25:34;;;;;;;8.77;8.03;;;18.60;99.90;;;;;;5016413;28;20480;-83
2022/10/31 09:28:05;;;;;;;8.80;8.10;;;18.50;99.90;;;;;;5015087;28;20562;-82
2022/10/31 09:30:35;;;;;;;9.17;8.37;;;18.60;99.90;;;;;;5015701;28;20456;-82
2022/10/31 09:33:06;;;;;;;10.70;8.63;;;18.60;99.90;;;;;;5013565;28;20906;-82
2022/10/31 09:35:34;;;;;;;8.43;7.87;;;18.70;99.90;;;;;;5016644;28;20831;-81
2022/10/31 09:38:04;;;;;;;8.63;7.90;;;18.80;99.90;;;;;;5014935;28;20478;-80
2022/10/31 09:40:36;;;;;;;9.60;8.67;;;18.70;99.90;;;;;;5016922;28;20523;-80
2022/10/31 09:43:19;;;;;;;10.07;9.27;;;18.90;99.90;;;;;;5016537;28;20531;-81
2022/10/31 09:45:56;;;;;;;8.33;7.60;;;19.00;99.90;;;;;;5016200;28;20548;-81
2022/10/31 09:48:45;;;;;;;8.00;7.50;;;18.90;99.90;;;;;;5016518;28;21033;-81
2022/10/31 09:51:17;;;;;;;9.03;8.00;;;19.00;99.90;;;;;;5016629;28;20582;-81
2022/10/31 09:53:49;;;;;;;9.23;8.20;;;18.90;99.90;;;;;;5018250;28;20452;-81
2022/10/31 09:56:20;;;;;;;8.47;7.97;;;19.00;99.90;;;;;;5015961;28;20552;-81
2022/10/31 09:58:53;;;;;;;9.43;8.63;;;19.10;99.90;;;;;;5011109;28;20477;-81
2022/10/31 10:01:34;;;;;;;8.53;7.90;;;19.30;99.90;;;;;;5014552;28;20465;-81
2022/10/31 10:04:18;;;;;;;8.67;8.10;;;19.50;99.90;;;;;;5012056;28;20484;-82
2022/10/31 10:06:50;;;;;;;8.17;7.50;;;19.70;99.90;;;;;;5013787;28;20476;-81
2022/10/31 10:09:19;;;;;;;9.07;8.40;;;20.00;99.90;;;;;;5002929;28;20617;-82
2022/10/31 10:12:03;;;;;;;9.60;8.90;;;20.30;99.90;;;;;;5018091;28;20511;-81
2022/10/31 10:14:43;;;;;;;9.57;8.63;;;20.60;99.90;;;;;;5013554;28;20457;-82
2022/10/31 10:17:23;;;;;;;9.40;8.53;;;21.10;99.90;;;;;;5010712;28;20460;-80
2022/10/31 10:20:24;;;;;;;9.40;8.70;;;21.50;99.90;;;;;;5014304;28;20460;-81
2022/10/31 10:23:03;;;;;;;9.47;8.77;;;21.30;99.90;;;;;;5015994;28;20459;-81
2022/10/31 10:25:39;;;;;;;9.27;8.37;;;21.40;99.90;;;;;;5012942;28;21000;-81
2022/10/31 10:28:18;;;;;;;12.93;8.73;;;21.30;99.90;;;;;;5014357;28;21044;-81
2022/10/31 10:30:49;;;;;;;9.60;8.50;;;21.10;99.90;;;;;;5012177;28;20571;-81
2022/10/31 10:33:22;;;;;;;7.90;7.30;;;21.10;99.90;;;;;;5014388;28;20462;-82
2022/10/31 10:35:55;;;;;;;9.00;8.30;;;21.30;99.90;;;;;;5011280;28;20823;-81
2022/10/31 10:38:29;;;;;;;8.57;7.70;;;21.20;99.90;;;;;;5013064;28;20465;-81
2022/10/31 10:41:01;;;;;;;8.70;7.93;;;21.00;99.90;;;;;;5016105;28;20500;-80
2022/10/31 10:43:34;;;;;;;8.00;7.30;;;20.90;99.90;;;;;;5008161;28;20560;-80
2022/10/31 10:49:18;;;;;;;8.60;7.80;;;20.60;99.90;;;;;;5012653;28;20481;-80
2022/10/31 10:51:52;;;;;;;8.63;7.30;;;20.40;99.90;;;;;;5010913;28;20450;-79
2022/10/31 10:54:47;;;;;;;8.37;7.70;;;20.30;99.90;;;;;;5009273;28;20479;-80
2022/10/31 10:57:40;;;;;;;9.80;8.57;;;20.40;99.90;;;;;;5015859;28;20552;-81
2022/10/31 11:00:19;;;;;;;8.87;7.70;;;20.40;99.90;;;;;;5013781;28;20499;-80
2022/10/31 11:02:47;;;;;;;8.10;7.60;;;20.90;99.90;;;;;;5010502;28;21045;-81
2022/10/31 11:05:25;;;;;;;8.50;7.83;;;21.40;99.90;;;;;;5008986;28;20468;-79
2022/10/31 11:07:55;;;;;;;8.90;8.00;;;22.10;99.90;;;;;;5016890;28;20493;-81
2022/10/31 11:10:23;;;;;;;8.17;7.37;;;22.10;99.90;;;;;;5014967;28;20523;-79
2022/10/31 11:13:21;;;;;;;8.13;7.33;;;21.80;99.90;;;;;;5015930;28;20548;-81
2022/10/31 11:15:56;;;;;;;8.80;8.03;;;21.60;99.90;;;;;;5013494;28;20484;-80
2022/10/31 11:18:27;;;;;;;8.00;7.60;;;21.60;99.90;;;;;;5014598;28;21342;-80
2022/10/31 11:20:57;;;;;;;16.60;8.80;;;21.50;99.90;;;;;;5009780;28;20476;-81
2022/10/31 11:23:29;;;;;;;10.47;8.17;;;21.40;99.90;;;;;;5015505;28;21027;-83
2022/10/31 11:25:59;;;;;;;11.07;6.70;;;21.30;99.90;;;;;;5019693;28;20539;-80
2022/10/31 11:28:30;;;;;;;8.40;7.70;;;21.00;99.90;;;;;;5015388;28;20860;-80
2022/10/31 11:30:59;;;;;;;6.90;6.33;;;20.90;99.90;;;;;;5014891;28;21144;-80
2022/10/31 11:33:32;;;;;;;6.43;6.13;;;20.80;99.90;;;;;;5013181;28;20520;-80
2022/10/31 11:36:01;;;;;;;7.50;6.90;;;20.90;99.90;;;;;;5015683;28;20467;-82
2022/10/31 11:38:36;;;;;;;8.57;7.60;;;20.90;99.90;;;;;;5014523;28;20515;-83
2022/10/31 11:41:12;;;;;;;7.90;7.27;;;20.90;99.90;;;;;;5014968;28;20933;-82
2022/10/31 11:43:47;;;;;;;8.43;7.70;;;20.90;99.90;;;;;;5014156;28;20460;-80
2022/10/31 11:46:22;;;;;;;8.60;7.70;;;20.80;99.90;;;;;;5016411;28;20506;-80
2022/10/31 11:48:52;;;;;;;9.70;7.70;;;20.80;99.90;;;;;;5012485;28;20896;-81
2022/10/31 11:51:27;;;;;;;7.77;7.07;;;20.70;99.90;;;;;;5015663;28;20446;-80
2022/10/31 11:53:59;;;;;;;7.63;6.70;;;20.60;99.90;;;;;;5023478;28;21326;-80
2022/10/31 11:56:39;;;;;;;7.93;7.33;;;20.50;99.90;;;;;;5021350;28;20444;-80
2022/10/31 11:59:19;;;;;;;8.43;7.73;;;20.30;99.90;;;;;;5015822;28;20572;-80
2022/10/31 12:01:53;;;;;;;7.93;7.30;;;20.30;99.90;;;;;;5012977;28;20488;-80
2022/10/31 12:04:30;;;;;;;7.37;6.87;;;20.30;99.90;;;;;;5012398;28;21118;-80
2022/10/31 12:06:59;;;;;;;7.93;7.27;;;20.20;99.90;;;;;;5015540;28;20510;-80
2022/10/31 12:09:30;;;;;;;9.10;8.37;;;20.30;99.90;;;;;;5013534;28;21049;-81
2022/10/31 12:12:30;;;;;;;7.37;6.77;;;20.40;99.90;;;;;;5016747;28;20490;-80
2022/10/31 12:15:12;;;;;;;8.00;7.13;;;20.40;99.90;;;;;;5013926;28;20562;-82
2022/10/31 12:17:45;;;;;;;7.30;6.57;;;20.40;99.90;;;;;;5015137;28;20503;-80
2022/10/31 12:20:26;;;;;;;7.33;6.83;;;20.40;99.90;;;;;;5016219;28;20448;-80
2022/10/31 12:23:04;;;;;;;6.77;6.47;;;20.40;99.90;;;;;;5014653;28;20985;-80
2022/10/31 12:25:44;;;;;;;7.57;7.00;;;20.40;99.90;;;;;;5009745;28;20544;-79
2022/10/31 12:28:50;;;;;;;7.53;6.90;;;20.10;99.90;;;;;;5011773;28;20354;-81
2022/10/31 12:31:46;;;;;;;7.27;6.63;;;20.20;99.90;;;;;;4981464;28;20501;-82
2022/10/31 12:34:59;;;;;;;7.33;6.60;;;20.00;99.90;;;;;;5018709;28;20549;-82
2022/10/31 12:37:41;;;;;;;8.30;7.80;;;19.90;99.90;;;;;;4975008;28;20551;-81
2022/10/31 12:40:41;;;;;;;8.23;7.60;;;19.90;99.90;;;;;;5020854;28;20452;-83
2022/10/31 12:43:22;;;;;;;8.40;7.60;;;19.80;99.90;;;;;;5018271;28;20544;-82
2022/10/31 12:45:55;;;;;;;14.80;8.40;;;19.80;99.90;;;;;;5016404;28;20497;-81
2022/10/31 12:49:01;;;;;;;8.03;7.23;;;19.70;99.90;;;;;;5016879;28;20605;-82
2022/10/31 12:51:38;;;;;;;8.07;7.33;;;19.70;99.90;;;;;;4984879;28;20503;-83
2022/10/31 12:54:20;;;;;;;12.03;8.33;;;19.60;99.90;;;;;;5018935;28;20457;-82
2022/10/31 12:57:01;;;;;;;9.93;8.27;;;19.50;99.90;;;;;;5016333;28;20460;-83
2022/10/31 12:59:34;;;;;;;12.73;8.43;;;19.50;99.90;;;;;;5012929;28;20440;-81
2022/10/31 13:02:14;;;;;;;10.00;8.63;;;19.60;99.90;;;;;;5015866;28;20481;-83
2022/10/31 13:04:49;;;;;;;8.07;7.47;;;19.60;99.90;;;;;;5017622;28;20449;-83
2022/10/31 13:07:22;;;;;;;10.00;9.03;;;19.70;99.90;;;;;;5018108;28;20485;-82
2022/10/31 13:09:57;;;;;;;10.57;9.50;;;19.70;99.90;;;;;;5020260;28;20480;-82
2022/10/31 13:12:30;;;;;;;9.03;8.30;;;19.70;99.90;;;;;;5018774;28;20456;-82
2022/10/31 13:15:12;;;;;;;10.30;8.37;;;19.60;99.90;;;;;;5013660;28;20461;-83
2022/10/31 13:17:45;;;;;;;9.10;8.50;;;19.60;99.90;;;;;;5016105;28;20484;-82